sensor_id;sensor_type;location;lat;lon;timestamp;temperature;humidity
32749;DHT22;19119;52.474;13.710;2023-04-24T00:00:32;10.50;99.90
32749;DHT22;19119;52.474;13.710;2023-04-24T00:02:57;10.40;99.90
32749;DHT22;19119;52.474;13.710;2023-04-24T00:05:24;10.40;99.90
32749;DHT22;19119;52.474;13.710;2023-04-24T00:07:50;10.40;99.90
32749;DHT22;19119;52.474;13.710;2023-04-24T00:10:19;10.30;99.90
32749;DHT22;19119;52.474;13.710;2023-04-24T00:12:44;10.30;99.90
32749;DHT22;19119;52.474;13.710;2023-04-24T00:15:10;10.30;99.90
32749;DHT22;19119;52.474;13.710;2023-04-24T00:17:36;10.40;99.90
32749;DHT22;19119;52.474;13.710;2023-04-24T00:20:03;10.30;99.90
32749;DHT22;19119;52.474;13.710;2023-04-24T00:22:30;10.30;99.90
32749;DHT22;19119;52.474;13.710;2023-04-24T00:24:56;10.30;99.90
32749;DHT22;19119;52.474;13.710;2023-04-24T00:27:22;10.30;99.90
32749;DHT22;19119;52.474;13.710;2023-04-24T00:29:48;10.30;99.90
32749;DHT22;19119;52.474;13.710;2023-04-24T00:32:14;10.20;99.90
32749;DHT22;19119;52.474;13.710;2023-04-24T00:34:40;10.10;99.90
32749;DHT22;19119;52.474;13.710;2023-04-24T00:37:28;10.10;99.90
32749;DHT22;19119;52.474;13.710;2023-04-24T00:39:54;10.20;99.90
32749;DHT22;19119;52.474;13.710;2023-04-24T00:42:20;10.10;99.90
32749;DHT22;19119;52.474;13.710;2023-04-24T00:44:46;10.20;99.90
32749;DHT22;19119;52.474;13.710;2023-04-24T00:47:12;10.20;99.90
32749;DHT22;19119;52.474;13.710;2023-04-24T00:49:38;10.10;99.90
32749;DHT22;19119;52.474;13.710;2023-04-24T00:52:04;10.10;99.90
32749;DHT22;19119;52.474;13.710;2023-04-24T00:54:33;10.00;99.90
32749;DHT22;19119;52.474;13.710;2023-04-24T00:56:58;10.00;99.90
32749;DHT22;19119;52.474;13.710;2023-04-24T00:59:24;10.00;99.90
32749;DHT22;19119;52.474;13.710;2023-04-24T01:01:50;10.00;99.90
32749;DHT22;19119;52.474;13.710;2023-04-24T01:04:17;10.00;99.90
32749;DHT22;19119;52.474;13.710;2023-04-24T01:06:43;10.00;99.90
32749;DHT22;19119;52.474;13.710;2023-04-24T01:09:10;9.90;99.90
32749;DHT22;19119;52.474;13.710;2023-04-24T01:11:37;10.00;99.90
32749;DHT22;19119;52.474;13.710;2023-04-24T01:14:02;10.00;99.90
32749;DHT22;19119;52.474;13.710;2023-04-24T01:16:28;10.00;99.90
32749;DHT22;19119;52.474;13.710;2023-04-24T01:18:54;10.00;99.90
32749;DHT22;19119;52.474;13.710;2023-04-24T01:21:21;10.00;99.90
32749;DHT22;19119;52.474;13.710;2023-04-24T01:23:46;9.90;99.90
32749;DHT22;19119;52.474;13.710;2023-04-24T01:26:14;10.00;99.90
32749;DHT22;19119;52.474;13.710;2023-04-24T01:28:40;10.00;99.90
32749;DHT22;19119;52.474;13.710;2023-04-24T01:31:05;10.00;99.90
32749;DHT22;19119;52.474;13.710;2023-04-24T01:33:31;10.00;99.90
32749;DHT22;19119;52.474;13.710;2023-04-24T01:35:57;10.10;99.90
32749;DHT22;19119;52.474;13.710;2023-04-24T01:38:23;10.00;99.90
32749;DHT22;19119;52.474;13.710;2023-04-24T01:40:49;10.10;99.90
32749;DHT22;19119;52.474;13.710;2023-04-24T01:43:15;10.20;99.90
32749;DHT22;19119;52.474;13.710;2023-04-24T01:45:40;10.10;99.90
32749;DHT22;19119;52.474;13.710;2023-04-24T01:48:06;10.00;99.90
32749;DHT22;19119;52.474;13.710;2023-04-24T01:50:32;10.10;99.90
32749;DHT22;19119;52.474;13.710;2023-04-24T01:52:57;10.10;99.90
32749;DHT22;19119;52.474;13.710;2023-04-24T01:55:23;10.10;99.90
32749;DHT22;19119;52.474;13.710;2023-04-24T01:57:49;10.10;99.90
32749;DHT22;19119;52.474;13.710;2023-04-24T02:00:15;10.10;99.90
32749;DHT22;19119;52.474;13.710;2023-04-24T02:02:41;10.10;99.90
32749;DHT22;19119;52.474;13.710;2023-04-24T02:05:07;10.10;99.90
32749;DHT22;19119;52.474;13.710;2023-04-24T02:07:33;10.10;99.90
32749;DHT22;19119;52.474;13.710;2023-04-24T02:09:58;10.20;99.90
32749;DHT22;19119;52.474;13.710;2023-04-24T02:12:24;10.10;99.90
32749;DHT22;19119;52.474;13.710;2023-04-24T02:14:49;10.10;99.90
32749;DHT22;19119;52.474;13.710;2023-04-24T02:17:15;10.10;99.90
32749;DHT22;19119;52.474;13.710;2023-04-24T02:19:41;10.10;99.90
32749;DHT22;19119;52.474;13.710;2023-04-24T02:22:07;10.10;99.90
32749;DHT22;19119;52.474;13.710;2023-04-24T02:24:32;10.10;99.90
32749;DHT22;19119;52.474;13.710;2023-04-24T02:26:58;10.10;99.90
32749;DHT22;19119;52.474;13.710;2023-04-24T02:29:23;10.20;99.90
32749;DHT22;19119;52.474;13.710;2023-04-24T02:31:49;10.30;99.90
32749;DHT22;19119;52.474;13.710;2023-04-24T02:34:15;10.30;99.90
32749;DHT22;19119;52.474;13.710;2023-04-24T02:36:41;10.30;99.90
32749;DHT22;19119;52.474;13.710;2023-04-24T02:39:07;10.30;99.90
32749;DHT22;19119;52.474;13.710;2023-04-24T02:41:32;10.40;99.90
32749;DHT22;19119;52.474;13.710;2023-04-24T02:43:58;10.50;99.90
32749;DHT22;19119;52.474;13.710;2023-04-24T02:46:24;10.50;99.90
32749;DHT22;19119;52.474;13.710;2023-04-24T02:48:49;10.50;99.90
32749;DHT22;19119;52.474;13.710;2023-04-24T02:51:15;10.60;99.90
32749;DHT22;19119;52.474;13.710;2023-04-24T02:53:40;10.60;99.90
32749;DHT22;19119;52.474;13.710;2023-04-24T02:56:06;10.70;99.90
32749;DHT22;19119;52.474;13.710;2023-04-24T02:58:31;10.70;99.90
32749;DHT22;19119;52.474;13.710;2023-04-24T03:00:56;10.70;99.90
32749;DHT22;19119;52.474;13.710;2023-04-24T03:03:22;10.70;99.90
32749;DHT22;19119;52.474;13.710;2023-04-24T03:05:49;10.70;99.90
32749;DHT22;19119;52.474;13.710;2023-04-24T03:08:14;10.80;99.90
32749;DHT22;19119;52.474;13.710;2023-04-24T03:10:42;10.70;99.90
32749;DHT22;19119;52.474;13.710;2023-04-24T03:13:07;10.80;99.90
32749;DHT22;19119;52.474;13.710;2023-04-24T03:15:33;10.80;99.90
32749;DHT22;19119;52.474;13.710;2023-04-24T03:17:58;10.80;99.90
32749;DHT22;19119;52.474;13.710;2023-04-24T03:20:24;10.90;99.90
32749;DHT22;19119;52.474;13.710;2023-04-24T03:22:49;10.90;99.90
32749;DHT22;19119;52.474;13.710;2023-04-24T03:25:15;10.90;99.90
32749;DHT22;19119;52.474;13.710;2023-04-24T03:27:40;10.90;99.90
32749;DHT22;19119;52.474;13.710;2023-04-24T03:30:07;10.90;99.90
32749;DHT22;19119;52.474;13.710;2023-04-24T03:32:33;10.90;99.90
32749;DHT22;19119;52.474;13.710;2023-04-24T03:34:58;10.90;99.90
32749;DHT22;19119;52.474;13.710;2023-04-24T03:37:24;11.00;99.90
32749;DHT22;19119;52.474;13.710;2023-04-24T03:39:49;11.00;99.90
32749;DHT22;19119;52.474;13.710;2023-04-24T03:42:15;11.00;99.90
32749;DHT22;19119;52.474;13.710;2023-04-24T03:44:40;11.10;99.90
32749;DHT22;19119;52.474;13.710;2023-04-24T03:47:05;11.10;99.90
32749;DHT22;19119;52.474;13.710;2023-04-24T03:49:31;11.20;99.90
32749;DHT22;19119;52.474;13.710;2023-04-24T03:51:57;11.20;99.90
32749;DHT22;19119;52.474;13.710;2023-04-24T03:54:22;11.20;99.90
32749;DHT22;19119;52.474;13.710;2023-04-24T03:56:47;11.20;99.90
32749;DHT22;19119;52.474;13.710;2023-04-24T03:59:13;11.20;99.90
32749;DHT22;19119;52.474;13.710;2023-04-24T04:01:38;11.30;99.90
32749;DHT22;19119;52.474;13.710;2023-04-24T04:04:08;11.30;99.90
32749;DHT22;19119;52.474;13.710;2023-04-24T04:06:34;11.30;99.90
32749;DHT22;19119;52.474;13.710;2023-04-24T04:09:00;11.40;99.90
32749;DHT22;19119;52.474;13.710;2023-04-24T04:11:25;11.40;99.90
32749;DHT22;19119;52.474;13.710;2023-04-24T04:13:51;11.40;99.90
32749;DHT22;19119;52.474;13.710;2023-04-24T04:16:16;11.40;99.90
32749;DHT22;19119;52.474;13.710;2023-04-24T04:18:43;11.40;99.90
32749;DHT22;19119;52.474;13.710;2023-04-24T04:21:08;11.40;99.90
32749;DHT22;19119;52.474;13.710;2023-04-24T04:23:34;11.50;99.90
32749;DHT22;19119;52.474;13.710;2023-04-24T04:26:00;11.50;99.90
32749;DHT22;19119;52.474;13.710;2023-04-24T04:28:26;11.50;99.90
32749;DHT22;19119;52.474;13.710;2023-04-24T04:30:51;11.50;99.90
32749;DHT22;19119;52.474;13.710;2023-04-24T04:33:21;11.50;99.90
32749;DHT22;19119;52.474;13.710;2023-04-24T04:35:47;11.50;99.90
32749;DHT22;19119;52.474;13.710;2023-04-24T04:38:17;11.50;99.90
32749;DHT22;19119;52.474;13.710;2023-04-24T04:40:43;11.50;99.90
32749;DHT22;19119;52.474;13.710;2023-04-24T04:43:09;11.60;99.90
32749;DHT22;19119;52.474;13.710;2023-04-24T04:45:39;11.60;99.90
32749;DHT22;19119;52.474;13.710;2023-04-24T04:48:05;11.60;99.90
32749;DHT22;19119;52.474;13.710;2023-04-24T04:50:33;11.60;99.90
32749;DHT22;19119;52.474;13.710;2023-04-24T04:52:59;11.60;99.90
32749;DHT22;19119;52.474;13.710;2023-04-24T04:55:24;11.60;99.90
32749;DHT22;19119;52.474;13.710;2023-04-24T04:57:50;11.60;99.90
32749;DHT22;19119;52.474;13.710;2023-04-24T05:00:16;11.60;99.90
32749;DHT22;19119;52.474;13.710;2023-04-24T05:02:42;11.60;99.90
32749;DHT22;19119;52.474;13.710;2023-04-24T05:05:07;11.60;99.90
32749;DHT22;19119;52.474;13.710;2023-04-24T05:07:33;11.60;99.90
32749;DHT22;19119;52.474;13.710;2023-04-24T05:09:59;11.60;99.90
32749;DHT22;19119;52.474;13.710;2023-04-24T05:12:24;11.70;99.90
32749;DHT22;19119;52.474;13.710;2023-04-24T05:14:50;11.70;99.90
32749;DHT22;19119;52.474;13.710;2023-04-24T05:17:16;11.80;99.90
32749;DHT22;19119;52.474;13.710;2023-04-24T05:19:41;11.80;99.90
32749;DHT22;19119;52.474;13.710;2023-04-24T05:22:08;12.00;99.90
32749;DHT22;19119;52.474;13.710;2023-04-24T05:24:35;12.00;99.90
32749;DHT22;19119;52.474;13.710;2023-04-24T05:27:02;12.10;99.90
32749;DHT22;19119;52.474;13.710;2023-04-24T05:29:28;12.20;99.90
32749;DHT22;19119;52.474;13.710;2023-04-24T05:31:56;12.10;99.90
32749;DHT22;19119;52.474;13.710;2023-04-24T05:34:21;12.20;99.90
32749;DHT22;19119;52.474;13.710;2023-04-24T05:36:47;12.30;99.90
32749;DHT22;19119;52.474;13.710;2023-04-24T05:39:13;12.30;99.90
32749;DHT22;19119;52.474;13.710;2023-04-24T05:41:38;12.30;99.90
32749;DHT22;19119;52.474;13.710;2023-04-24T05:44:04;12.40;99.90
32749;DHT22;19119;52.474;13.710;2023-04-24T05:46:30;12.50;99.90
32749;DHT22;19119;52.474;13.710;2023-04-24T05:48:55;12.60;99.90
32749;DHT22;19119;52.474;13.710;2023-04-24T05:51:20;12.70;99.90
32749;DHT22;19119;52.474;13.710;2023-04-24T05:53:46;12.70;99.90
32749;DHT22;19119;52.474;13.710;2023-04-24T05:56:11;12.90;99.90
32749;DHT22;19119;52.474;13.710;2023-04-24T05:58:37;12.90;99.90
32749;DHT22;19119;52.474;13.710;2023-04-24T06:01:03;12.90;99.90
32749;DHT22;19119;52.474;13.710;2023-04-24T06:03:29;12.90;99.90
32749;DHT22;19119;52.474;13.710;2023-04-24T06:05:54;13.10;99.90
32749;DHT22;19119;52.474;13.710;2023-04-24T06:08:20;13.50;99.90
32749;DHT22;19119;52.474;13.710;2023-04-24T06:10:45;13.70;99.90
32749;DHT22;19119;52.474;13.710;2023-04-24T06:13:11;14.00;99.90
32749;DHT22;19119;52.474;13.710;2023-04-24T06:15:37;14.00;99.90
32749;DHT22;19119;52.474;13.710;2023-04-24T06:18:03;13.90;99.90
32749;DHT22;19119;52.474;13.710;2023-04-24T06:20:29;13.70;99.90
32749;DHT22;19119;52.474;13.710;2023-04-24T06:22:54;13.70;99.90
32749;DHT22;19119;52.474;13.710;2023-04-24T06:25:20;13.80;99.90
32749;DHT22;19119;52.474;13.710;2023-04-24T06:27:45;13.80;99.90
32749;DHT22;19119;52.474;13.710;2023-04-24T06:30:12;14.10;99.90
32749;DHT22;19119;52.474;13.710;2023-04-24T06:32:37;14.10;99.90
32749;DHT22;19119;52.474;13.710;2023-04-24T06:35:03;14.10;99.90
32749;DHT22;19119;52.474;13.710;2023-04-24T06:37:29;14.20;99.90
32749;DHT22;19119;52.474;13.710;2023-04-24T06:39:55;14.20;99.90
32749;DHT22;19119;52.474;13.710;2023-04-24T06:42:20;14.10;99.90
32749;DHT22;19119;52.474;13.710;2023-04-24T06:44:50;14.00;99.90
32749;DHT22;19119;52.474;13.710;2023-04-24T06:47:15;13.80;99.90
32749;DHT22;19119;52.474;13.710;2023-04-24T06:49:42;13.90;99.90
32749;DHT22;19119;52.474;13.710;2023-04-24T06:52:07;14.10;99.90
32749;DHT22;19119;52.474;13.710;2023-04-24T06:54:33;14.00;99.90
32749;DHT22;19119;52.474;13.710;2023-04-24T06:57:00;13.90;99.90
32749;DHT22;19119;52.474;13.710;2023-04-24T06:59:26;14.10;99.90
32749;DHT22;19119;52.474;13.710;2023-04-24T07:01:52;14.40;99.90
32749;DHT22;19119;52.474;13.710;2023-04-24T07:04:18;14.80;99.90
32749;DHT22;19119;52.474;13.710;2023-04-24T07:06:47;15.20;99.90
32749;DHT22;19119;52.474;13.710;2023-04-24T07:09:13;15.50;99.90
32749;DHT22;19119;52.474;13.710;2023-04-24T07:11:45;15.90;99.90
32749;DHT22;19119;52.474;13.710;2023-04-24T07:14:10;16.30;99.90
32749;DHT22;19119;52.474;13.710;2023-04-24T07:16:36;16.30;99.90
32749;DHT22;19119;52.474;13.710;2023-04-24T07:19:01;16.50;99.90
32749;DHT22;19119;52.474;13.710;2023-04-24T07:21:27;16.90;99.90
32749;DHT22;19119;52.474;13.710;2023-04-24T07:23:53;16.90;99.90
32749;DHT22;19119;52.474;13.710;2023-04-24T07:26:19;17.10;99.90
32749;DHT22;19119;52.474;13.710;2023-04-24T07:28:46;17.10;99.90
32749;DHT22;19119;52.474;13.710;2023-04-24T07:31:11;17.40;99.90
32749;DHT22;19119;52.474;13.710;2023-04-24T07:33:37;17.20;99.90
32749;DHT22;19119;52.474;13.710;2023-04-24T07:36:03;17.70;99.90
32749;DHT22;19119;52.474;13.710;2023-04-24T07:38:31;18.00;99.90
32749;DHT22;19119;52.474;13.710;2023-04-24T07:40:57;18.10;99.90
32749;DHT22;19119;52.474;13.710;2023-04-24T07:43:22;18.00;99.90
32749;DHT22;19119;52.474;13.710;2023-04-24T07:45:49;17.90;99.90
32749;DHT22;19119;52.474;13.710;2023-04-24T07:48:15;18.20;99.90
32749;DHT22;19119;52.474;13.710;2023-04-24T07:50:42;18.60;99.90
32749;DHT22;19119;52.474;13.710;2023-04-24T07:53:07;18.30;99.90
32749;DHT22;19119;52.474;13.710;2023-04-24T07:55:33;18.10;99.90
32749;DHT22;19119;52.474;13.710;2023-04-24T07:57:58;17.80;99.90
32749;DHT22;19119;52.474;13.710;2023-04-24T08:00:24;17.40;99.90
32749;DHT22;19119;52.474;13.710;2023-04-24T08:02:49;17.30;99.90
32749;DHT22;19119;52.474;13.710;2023-04-24T08:05:15;17.60;99.90
32749;DHT22;19119;52.474;13.710;2023-04-24T08:07:40;17.80;99.90
32749;DHT22;19119;52.474;13.710;2023-04-24T08:10:09;18.00;99.90
32749;DHT22;19119;52.474;13.710;2023-04-24T08:12:35;18.40;99.90
32749;DHT22;19119;52.474;13.710;2023-04-24T08:15:00;18.50;99.90
32749;DHT22;19119;52.474;13.710;2023-04-24T08:17:26;18.50;99.90
32749;DHT22;19119;52.474;13.710;2023-04-24T08:19:51;18.60;99.90
32749;DHT22;19119;52.474;13.710;2023-04-24T08:22:18;18.80;99.90
32749;DHT22;19119;52.474;13.710;2023-04-24T08:24:44;18.70;99.90
32749;DHT22;19119;52.474;13.710;2023-04-24T08:27:09;18.70;99.90
32749;DHT22;19119;52.474;13.710;2023-04-24T08:29:36;19.10;99.90
32749;DHT22;19119;52.474;13.710;2023-04-24T08:32:01;19.20;99.90
32749;DHT22;19119;52.474;13.710;2023-04-24T08:34:27;19.60;99.90
32749;DHT22;19119;52.474;13.710;2023-04-24T08:36:53;19.60;99.90
32749;DHT22;19119;52.474;13.710;2023-04-24T08:39:19;19.70;99.90
32749;DHT22;19119;52.474;13.710;2023-04-24T08:41:45;19.60;99.90
32749;DHT22;19119;52.474;13.710;2023-04-24T08:44:12;19.80;99.90
32749;DHT22;19119;52.474;13.710;2023-04-24T08:46:38;20.20;99.90
32749;DHT22;19119;52.474;13.710;2023-04-24T08:49:04;20.50;99.90
32749;DHT22;19119;52.474;13.710;2023-04-24T08:51:31;20.90;99.90
32749;DHT22;19119;52.474;13.710;2023-04-24T08:53:57;20.60;99.90
32749;DHT22;19119;52.474;13.710;2023-04-24T08:56:23;20.60;99.90
32749;DHT22;19119;52.474;13.710;2023-04-24T08:58:51;20.20;99.90
32749;DHT22;19119;52.474;13.710;2023-04-24T09:01:19;19.70;99.90
32749;DHT22;19119;52.474;13.710;2023-04-24T09:03:46;19.80;99.90
32749;DHT22;19119;52.474;13.710;2023-04-24T09:06:11;19.70;99.90
32749;DHT22;19119;52.474;13.710;2023-04-24T09:08:38;20.00;99.90
32749;DHT22;19119;52.474;13.710;2023-04-24T09:11:05;20.20;99.90
32749;DHT22;19119;52.474;13.710;2023-04-24T09:13:30;19.80;99.90
32749;DHT22;19119;52.474;13.710;2023-04-24T09:15:57;19.50;99.90
32749;DHT22;19119;52.474;13.710;2023-04-24T09:18:22;19.40;99.90
32749;DHT22;19119;52.474;13.710;2023-04-24T09:21:06;19.00;99.90
32749;DHT22;19119;52.474;13.710;2023-04-24T09:23:32;18.80;99.90
32749;DHT22;19119;52.474;13.710;2023-04-24T09:26:00;18.60;99.90
32749;DHT22;19119;52.474;13.710;2023-04-24T09:28:37;18.80;99.90
32749;DHT22;19119;52.474;13.710;2023-04-24T09:31:14;18.90;99.90
32749;DHT22;19119;52.474;13.710;2023-04-24T09:34:01;18.50;99.90
32749;DHT22;19119;52.474;13.710;2023-04-24T09:36:33;18.60;99.90
32749;DHT22;19119;52.474;13.710;2023-04-24T09:39:00;18.60;99.90
32749;DHT22;19119;52.474;13.710;2023-04-24T09:41:27;18.90;99.90
32749;DHT22;19119;52.474;13.710;2023-04-24T09:43:56;18.50;99.90
32749;DHT22;19119;52.474;13.710;2023-04-24T09:46:29;18.50;99.90
32749;DHT22;19119;52.474;13.710;2023-04-24T09:48:56;18.00;99.90
32749;DHT22;19119;52.474;13.710;2023-04-24T09:51:34;18.10;99.90
32749;DHT22;19119;52.474;13.710;2023-04-24T09:54:00;17.90;99.90
32749;DHT22;19119;52.474;13.710;2023-04-24T09:56:26;17.80;99.90
32749;DHT22;19119;52.474;13.710;2023-04-24T09:58:51;17.80;99.90
32749;DHT22;19119;52.474;13.710;2023-04-24T10:01:30;17.90;99.90
32749;DHT22;19119;52.474;13.710;2023-04-24T10:03:56;17.80;99.90
32749;DHT22;19119;52.474;13.710;2023-04-24T10:06:21;17.50;99.90
32749;DHT22;19119;52.474;13.710;2023-04-24T10:08:48;17.30;99.90
32749;DHT22;19119;52.474;13.710;2023-04-24T10:11:14;17.20;99.90
32749;DHT22;19119;52.474;13.710;2023-04-24T10:13:40;17.20;99.90
32749;DHT22;19119;52.474;13.710;2023-04-24T10:16:06;17.20;99.90
32749;DHT22;19119;52.474;13.710;2023-04-24T10:18:32;17.00;99.90
32749;DHT22;19119;52.474;13.710;2023-04-24T10:21:00;16.90;99.90
32749;DHT22;19119;52.474;13.710;2023-04-24T10:23:26;16.90;99.90
32749;DHT22;19119;52.474;13.710;2023-04-24T10:25:54;17.20;99.90
32749;DHT22;19119;52.474;13.710;2023-04-24T10:28:26;17.00;99.90
32749;DHT22;19119;52.474;13.710;2023-04-24T10:30:54;17.10;99.90
32749;DHT22;19119;52.474;13.710;2023-04-24T10:33:21;17.10;99.90
32749;DHT22;19119;52.474;13.710;2023-04-24T10:35:50;17.20;99.90
32749;DHT22;19119;52.474;13.710;2023-04-24T10:38:22;17.30;99.90
32749;DHT22;19119;52.474;13.710;2023-04-24T10:40:49;17.50;99.90
32749;DHT22;19119;52.474;13.710;2023-04-24T10:43:17;17.60;99.90
32749;DHT22;19119;52.474;13.710;2023-04-24T10:46:03;17.70;99.90
32749;DHT22;19119;52.474;13.710;2023-04-24T10:48:29;17.40;99.90
32749;DHT22;19119;52.474;13.710;2023-04-24T10:50:54;17.40;99.90
32749;DHT22;19119;52.474;13.710;2023-04-24T10:53:22;17.60;99.90
32749;DHT22;19119;52.474;13.710;2023-04-24T10:56:08;18.20;99.90
32749;DHT22;19119;52.474;13.710;2023-04-24T10:58:50;18.50;99.90
32749;DHT22;19119;52.474;13.710;2023-04-24T11:01:29;18.90;99.90
32749;DHT22;19119;52.474;13.710;2023-04-24T11:03:58;19.30;99.90
32749;DHT22;19119;52.474;13.710;2023-04-24T11:06:36;19.00;99.90
32749;DHT22;19119;52.474;13.710;2023-04-24T11:09:08;19.20;99.90
32749;DHT22;19119;52.474;13.710;2023-04-24T11:11:35;19.40;99.90
32749;DHT22;19119;52.474;13.710;2023-04-24T11:14:03;19.20;99.90
32749;DHT22;19119;52.474;13.710;2023-04-24T11:16:42;19.10;99.90
32749;DHT22;19119;52.474;13.710;2023-04-24T11:24:31;19.30;99.90
32749;DHT22;19119;52.474;13.710;2023-04-24T11:27:11;19.80;99.90
32749;DHT22;19119;52.474;13.710;2023-04-24T11:29:48;20.60;99.90
32749;DHT22;19119;52.474;13.710;2023-04-24T11:37:41;21.50;99.90
32749;DHT22;19119;52.474;13.710;2023-04-24T11:40:12;21.40;99.90
32749;DHT22;19119;52.474;13.710;2023-04-24T11:42:48;21.40;99.90
32749;DHT22;19119;52.474;13.710;2023-04-24T11:45:22;20.90;99.90
32749;DHT22;19119;52.474;13.710;2023-04-24T11:47:48;20.40;99.90
32749;DHT22;19119;52.474;13.710;2023-04-24T11:50:15;19.80;99.90
32749;DHT22;19119;52.474;13.710;2023-04-24T11:52:47;19.30;99.90
32749;DHT22;19119;52.474;13.710;2023-04-24T11:57:47;18.60;99.90
32749;DHT22;19119;52.474;13.710;2023-04-24T12:00:21;18.30;99.90
32749;DHT22;19119;52.474;13.710;2023-04-24T12:02:48;17.70;99.90
32749;DHT22;19119;52.474;13.710;2023-04-24T12:05:22;17.20;99.90
32749;DHT22;19119;52.474;13.710;2023-04-24T12:07:48;17.20;99.90
32749;DHT22;19119;52.474;13.710;2023-04-24T12:10:13;17.00;99.90
32749;DHT22;19119;52.474;13.710;2023-04-24T12:12:40;17.00;99.90
32749;DHT22;19119;52.474;13.710;2023-04-24T12:15:09;17.40;99.90
32749;DHT22;19119;52.474;13.710;2023-04-24T12:17:35;17.50;99.90
32749;DHT22;19119;52.474;13.710;2023-04-24T12:20:04;17.80;99.90
32749;DHT22;19119;52.474;13.710;2023-04-24T12:22:50;18.30;99.90
32749;DHT22;19119;52.474;13.710;2023-04-24T12:25:20;18.90;99.90
32749;DHT22;19119;52.474;13.710;2023-04-24T12:27:51;19.20;99.90
32749;DHT22;19119;52.474;13.710;2023-04-24T12:30:18;19.50;99.90
32749;DHT22;19119;52.474;13.710;2023-04-24T12:32:45;19.80;99.90
32749;DHT22;19119;52.474;13.710;2023-04-24T12:35:11;19.40;99.90
32749;DHT22;19119;52.474;13.710;2023-04-24T12:37:37;19.10;99.90
32749;DHT22;19119;52.474;13.710;2023-04-24T12:40:11;19.10;99.90
32749;DHT22;19119;52.474;13.710;2023-04-24T12:42:46;19.10;99.90
32749;DHT22;19119;52.474;13.710;2023-04-24T12:45:12;18.90;99.90
32749;DHT22;19119;52.474;13.710;2023-04-24T12:47:38;19.60;99.90
32749;DHT22;19119;52.474;13.710;2023-04-24T12:50:04;20.00;99.90
32749;DHT22;19119;52.474;13.710;2023-04-24T12:52:31;20.10;99.90
32749;DHT22;19119;52.474;13.710;2023-04-24T12:54:58;20.00;99.90
32749;DHT22;19119;52.474;13.710;2023-04-24T12:57:24;20.30;99.90
32749;DHT22;19119;52.474;13.710;2023-04-24T12:59:51;20.60;99.90
32749;DHT22;19119;52.474;13.710;2023-04-24T13:02:17;20.40;99.90
32749;DHT22;19119;52.474;13.710;2023-04-24T13:04:49;20.10;99.90
32749;DHT22;19119;52.474;13.710;2023-04-24T13:07:15;19.80;99.90
32749;DHT22;19119;52.474;13.710;2023-04-24T13:09:41;19.40;99.90
32749;DHT22;19119;52.474;13.710;2023-04-24T13:12:09;19.40;99.90
32749;DHT22;19119;52.474;13.710;2023-04-24T13:14:34;19.00;99.90
32749;DHT22;19119;52.474;13.710;2023-04-24T13:17:00;19.40;99.90
32749;DHT22;19119;52.474;13.710;2023-04-24T13:19:27;19.50;99.90
32749;DHT22;19119;52.474;13.710;2023-04-24T13:21:56;19.70;99.90
32749;DHT22;19119;52.474;13.710;2023-04-24T13:24:23;19.80;99.10
32749;DHT22;19119;52.474;13.710;2023-04-24T13:26:55;20.10;98.70
32749;DHT22;19119;52.474;13.710;2023-04-24T13:29:22;20.20;98.00
32749;DHT22;19119;52.474;13.710;2023-04-24T13:31:51;20.30;97.70
32749;DHT22;19119;52.474;13.710;2023-04-24T13:34:19;20.60;98.50
32749;DHT22;19119;52.474;13.710;2023-04-24T13:36:45;20.50;98.30
32749;DHT22;19119;52.474;13.710;2023-04-24T13:39:11;21.30;98.10
32749;DHT22;19119;52.474;13.710;2023-04-24T13:41:36;21.00;97.80
32749;DHT22;19119;52.474;13.710;2023-04-24T13:44:03;20.40;97.70
32749;DHT22;19119;52.474;13.710;2023-04-24T13:46:29;20.20;97.90
32749;DHT22;19119;52.474;13.710;2023-04-24T13:48:54;20.40;97.20
32749;DHT22;19119;52.474;13.710;2023-04-24T13:51:20;20.10;97.10
32749;DHT22;19119;52.474;13.710;2023-04-24T13:53:48;20.30;96.60
32749;DHT22;19119;52.474;13.710;2023-04-24T13:56:13;20.10;96.20
32749;DHT22;19119;52.474;13.710;2023-04-24T13:58:39;20.30;96.20
32749;DHT22;19119;52.474;13.710;2023-04-24T14:01:05;20.30;95.80
32749;DHT22;19119;52.474;13.710;2023-04-24T14:03:30;20.40;95.20
32749;DHT22;19119;52.474;13.710;2023-04-24T14:05:56;19.90;95.90
32749;DHT22;19119;52.474;13.710;2023-04-24T14:08:21;19.80;95.50
32749;DHT22;19119;52.474;13.710;2023-04-24T14:10:47;19.70;96.30
32749;DHT22;19119;52.474;13.710;2023-04-24T14:13:13;19.60;95.50
32749;DHT22;19119;52.474;13.710;2023-04-24T14:15:39;19.50;95.10
32749;DHT22;19119;52.474;13.710;2023-04-24T14:18:08;19.60;95.20
32749;DHT22;19119;52.474;13.710;2023-04-24T14:20:33;20.10;95.50
32749;DHT22;19119;52.474;13.710;2023-04-24T14:22:59;20.30;96.10
32749;DHT22;19119;52.474;13.710;2023-04-24T14:25:25;20.00;95.20
32749;DHT22;19119;52.474;13.710;2023-04-24T14:27:50;19.60;95.20
32749;DHT22;19119;52.474;13.710;2023-04-24T14:30:16;19.40;95.30
32749;DHT22;19119;52.474;13.710;2023-04-24T14:32:43;20.00;95.70
32749;DHT22;19119;52.474;13.710;2023-04-24T14:35:09;19.50;94.90
32749;DHT22;19119;52.474;13.710;2023-04-24T14:37:34;19.30;95.70
32749;DHT22;19119;52.474;13.710;2023-04-24T14:40:03;19.30;95.70
32749;DHT22;19119;52.474;13.710;2023-04-24T14:42:32;19.00;95.00
32749;DHT22;19119;52.474;13.710;2023-04-24T14:44:58;19.10;95.70
32749;DHT22;19119;52.474;13.710;2023-04-24T14:47:23;19.10;95.80
32749;DHT22;19119;52.474;13.710;2023-04-24T14:49:49;18.90;96.50
32749;DHT22;19119;52.474;13.710;2023-04-24T14:52:15;19.30;96.10
32749;DHT22;19119;52.474;13.710;2023-04-24T14:54:41;19.30;95.40
32749;DHT22;19119;52.474;13.710;2023-04-24T14:57:07;19.20;95.40
32749;DHT22;19119;52.474;13.710;2023-04-24T14:59:33;19.30;95.60
32749;DHT22;19119;52.474;13.710;2023-04-24T15:01:58;19.40;94.50
32749;DHT22;19119;52.474;13.710;2023-04-24T15:04:25;19.50;95.50
32749;DHT22;19119;52.474;13.710;2023-04-24T15:06:51;19.20;95.20
32749;DHT22;19119;52.474;13.710;2023-04-24T15:09:18;18.90;95.40
32749;DHT22;19119;52.474;13.710;2023-04-24T15:11:43;18.50;95.40
32749;DHT22;19119;52.474;13.710;2023-04-24T15:14:09;18.40;95.30
32749;DHT22;19119;52.474;13.710;2023-04-24T15:16:35;18.50;95.20
32749;DHT22;19119;52.474;13.710;2023-04-24T15:19:00;18.30;95.10
32749;DHT22;19119;52.474;13.710;2023-04-24T15:21:26;18.70;95.90
32749;DHT22;19119;52.474;13.710;2023-04-24T15:23:52;18.50;95.50
32749;DHT22;19119;52.474;13.710;2023-04-24T15:26:19;18.40;95.80